Time;durP1;ratioP1;P1;durP2;ratioP2;P2;SDS_P1;SDS_P2;PMS_P1;PMS_P2;Temp;Humidity;BMP_temperature;BMP_pressure;BME280_temperature;BME280_humidity;BME280_pressure;Samples;Min_cycle;Max_cycle;Signal;HPM_P1;HPM_P2
2022/04/03 00:00:26;;;;;;;3.05;2.65;;;;;;;1.34;nan;102358.81;5073151;28;20085;-59
2022/04/03 00:02:51;;;;;;;5.47;3.35;;;;;;;1.33;nan;102360.50;5073078;28;20071;-58
2022/04/03 00:05:18;;;;;;;3.97;3.00;;;;;;;0.92;nan;102297.06;5071903;28;20036;-56
2022/04/03 00:07:44;;;;;;;4.10;2.75;;;;;;;1.23;nan;102366.25;5072957;28;20044;-56
2022/04/03 00:10:09;;;;;;;6.75;2.88;;;;;;;1.07;nan;102362.34;5072919;28;20044;-58
2022/04/03 00:12:34;;;;;;;5.97;3.15;;;;;;;0.39;nan;102266.03;5071548;28;20158;-58
2022/04/03 00:15:00;;;;;;;6.22;2.97;;;;;;;0.88;nan;102357.41;5072647;28;20044;-58
2022/04/03 00:17:25;;;;;;;8.18;3.88;;;;;;;0.86;nan;102360.78;5072596;28;20082;-60
2022/04/03 00:19:50;;;;;;;3.85;2.75;;;;;;;0.71;nan;102347.34;5072773;28;20040;-57
2022/04/03 00:22:16;;;;;;;4.40;3.63;;;;;;;0.68;nan;102347.25;5072637;28;20480;-57
2022/04/03 00:24:41;;;;;;;5.07;3.67;;;;;;;0.64;nan;102351.47;5072427;28;20452;-58
2022/04/03 00:27:07;;;;;;;4.75;2.78;;;;;;;0.55;nan;102362.41;5072352;28;20414;-60
2022/04/03 00:29:32;;;;;;;5.70;3.35;;;;;;;0.44;nan;102350.81;5072636;28;20116;-59
2022/04/03 00:31:58;;;;;;;3.85;2.95;;;;;;;0.31;nan;102340.00;5072098;28;20060;-59
2022/04/03 00:34:24;;;;;;;7.43;3.85;;;;;;;0.13;nan;102335.09;5071254;28;20033;-58
2022/04/03 00:36:49;;;;;;;7.22;4.50;;;;;;;-0.02;nan;102324.22;5070536;28;20090;-58
2022/04/03 00:39:14;;;;;;;5.30;4.00;;;;;;;-0.40;nan;102267.69;5070866;28;20040;-58
2022/04/03 00:41:40;;;;;;;5.10;3.33;;;;;;;-0.25;nan;102297.56;5072258;28;20182;-59
2022/04/03 00:44:06;;;;;;;3.70;3.00;;;;;;;0.07;nan;102339.19;5072179;28;20056;-58
2022/04/03 00:46:33;;;;;;;6.03;3.53;;;;;;;0.08;nan;102359.97;5070765;28;20551;-58
2022/04/03 00:48:59;;;;;;;4.20;3.47;;;;;;;0.04;nan;102345.13;5072197;28;20488;-59
2022/04/03 00:51:25;;;;;;;4.80;3.65;;;;;;;-0.44;nan;102258.06;5072373;28;20442;-57
2022/04/03 00:53:50;;;;;;;5.32;3.67;;;;;;;-0.23;nan;102305.34;5072210;28;20107;-59
2022/04/03 00:56:16;;;;;;;17.50;3.72;;;;;;;-0.01;nan;102347.59;5071753;28;20036;-58
2022/04/03 00:58:42;;;;;;;3.67;3.08;;;;;;;-0.26;nan;102313.91;5070697;28;20036;-57
2022/04/03 01:01:07;;;;;;;7.53;3.38;;;;;;;-0.13;nan;102352.34;5071812;28;20087;-57
2022/04/03 01:03:32;;;;;;;4.40;3.33;;;;;;;-0.17;nan;102357.31;5071992;28;20110;-56
2022/04/03 01:05:58;;;;;;;6.05;3.80;;;;;;;-0.23;nan;102349.34;5053646;28;20497;-58
2022/04/03 01:08:24;;;;;;;4.97;3.65;;;;;;;-0.50;nan;102309.59;5071947;28;20032;-60
2022/04/03 01:10:50;;;;;;;4.75;3.30;;;;;;;-1.48;nan;102146.59;5071658;28;20039;-59
2022/04/03 01:13:15;;;;;;;9.68;4.45;;;;;;;-0.74;nan;102288.88;5071727;28;20393;-59
2022/04/03 01:15:40;;;;;;;8.27;4.40;;;;;;;-0.45;nan;102341.66;5070238;28;20092;-59
2022/04/03 01:18:06;;;;;;;6.50;4.63;;;;;;;-0.49;nan;102337.19;5071576;28;20028;-59
2022/04/03 01:20:31;;;;;;;5.75;4.47;;;;;;;-1.05;nan;102253.25;5070447;28;20028;-59
2022/04/03 01:22:56;;;;;;;7.22;4.18;;;;;;;-0.61;nan;102332.44;5071608;28;20028;-60
2022/04/03 01:25:22;;;;;;;4.13;3.45;;;;;;;-1.37;nan;102202.13;5071820;28;20071;-60
2022/04/03 01:27:47;;;;;;;7.47;4.22;;;;;;;-0.76;nan;102319.84;5071660;28;20068;-59
2022/04/03 01:30:13;;;;;;;6.22;3.60;;;;;;;-0.76;nan;102321.56;5071509;28;20028;-59
2022/04/03 01:32:39;;;;;;;6.00;4.30;;;;;;;-0.77;nan;102331.03;5071133;28;20057;-60
2022/04/03 01:35:05;;;;;;;5.80;3.92;;;;;;;-0.82;nan;102335.16;5070217;28;20041;-60
2022/04/03 01:37:30;;;;;;;7.93;3.90;;;;;;;-0.87;nan;102325.44;5071319;28;20033;-60
2022/04/03 01:39:56;;;;;;;4.00;3.30;;;;;;;-0.92;nan;102322.69;5071466;28;20146;-60
2022/04/03 01:42:21;;;;;;;4.60;3.65;;;;;;;-0.92;nan;102322.69;5071235;28;20036;-60
2022/04/03 01:44:47;;;;;;;4.88;3.65;;;;;;;-0.96;nan;102314.78;5069929;28;20044;-60
2022/04/03 01:47:12;;;;;;;6.13;4.35;;;;;;;-1.07;nan;102301.44;5071343;28;20032;-60
2022/04/03 01:49:38;;;;;;;5.07;3.60;;;;;;;-1.19;nan;102281.19;5071407;28;20408;-60
2022/04/03 01:52:04;;;;;;;3.67;3.05;;;;;;;-1.36;nan;102243.50;5071371;28;20037;-59
2022/04/03 01:54:29;;;;;;;4.70;3.25;;;;;;;-0.98;nan;102335.38;5071255;28;20127;-60
2022/04/03 01:56:55;;;;;;;5.32;3.28;;;;;;;-1.10;nan;102295.25;5053094;28;20465;-60
2022/04/03 01:59:21;;;;;;;5.05;3.10;;;;;;;-0.97;nan;102319.06;5071054;28;20032;-60
2022/04/03 02:01:46;;;;;;;4.97;3.20;;;;;;;-1.40;nan;102233.00;5070033;28;20432;-60
2022/04/03 02:04:12;;;;;;;4.55;3.25;;;;;;;-0.97;nan;102316.47;5069966;28;20124;-60
2022/04/03 02:06:38;;;;;;;6.35;3.40;;;;;;;-1.02;nan;102301.63;5071321;28;20036;-60
2022/04/03 02:09:04;;;;;;;4.03;3.10;;;;;;;-1.17;nan;102270.94;5053064;28;20035;-61
2022/04/03 02:11:29;;;;;;;5.32;3.42;;;;;;;-1.05;nan;102304.94;5071071;28;20044;-59
2022/04/03 02:13:55;;;;;;;3.42;2.97;;;;;;;-1.48;nan;102234.41;5071015;28;20033;-60
2022/04/03 02:16:20;;;;;;;6.72;3.45;;;;;;;-1.07;nan;102310.88;5071149;28;20123;-60
2022/04/03 02:18:45;;;;;;;6.85;3.50;;;;;;;-1.13;nan;102309.84;5070978;28;20445;-60
2022/04/03 02:21:11;;;;;;;4.20;2.95;;;;;;;-1.17;nan;102312.25;5071137;28;20426;-60
2022/04/03 02:23:37;;;;;;;4.85;3.42;;;;;;;-1.22;nan;102309.47;5071134;28;20085;-60
2022/04/03 02:26:02;;;;;;;4.93;3.55;;;;;;;-1.74;nan;102229.13;5070922;28;20028;-59
2022/04/03 02:28:27;;;;;;;7.63;2.92;;;;;;;-1.72;nan;102245.53;5070871;28;20036;-61
2022/04/03 02:30:53;;;;;;;6.38;3.03;;;;;;;-1.74;nan;102248.88;5069306;28;20477;-61
2022/04/03 02:33:18;;;;;;;3.20;2.90;;;;;;;-1.82;nan;102239.97;5071077;28;20442;-61
2022/04/03 02:35:43;;;;;;;6.50;4.05;;;;;;;-1.76;nan;102253.09;5070758;28;20383;-61
2022/04/03 02:38:09;;;;;;;6.00;3.35;;;;;;;-1.91;nan;102232.72;5069780;28;20036;-61
2022/04/03 02:40:35;;;;;;;6.43;3.33;;;;;;;-1.47;nan;102301.63;5069547;28;20447;-60
2022/04/03 02:43:00;;;;;;;4.13;3.25;;;;;;;-1.59;nan;102288.22;5069467;28;20039;-59
2022/04/03 02:45:25;;;;;;;6.00;3.38;;;;;;;-1.52;nan;102305.72;5070933;28;20040;-59
2022/04/03 02:47:53;;;;;;;7.25;3.97;;;;;;;-1.58;nan;102294.25;5070739;28;20513;-61
2022/04/03 02:50:20;;;;;;;5.60;3.72;;;;;;;-1.63;nan;102281.16;5070876;28;20064;-60
2022/04/03 02:52:49;;;;;;;4.28;3.38;;;;;;;-1.73;nan;102267.03;5069471;28;20028;-60
2022/04/03 02:55:16;;;;;;;6.72;3.78;;;;;;;-1.90;nan;102239.63;5069219;28;20118;-62
2022/04/03 02:57:41;;;;;;;8.00;4.07;;;;;;;-1.52;nan;102310.88;5070728;28;20064;-60
2022/04/03 03:00:07;;;;;;;5.25;4.20;;;;;;;-1.95;nan;102240.28;5072055;28;20032;-60
2022/04/03 03:02:33;;;;;;;6.50;4.10;;;;;;;-1.53;nan;102308.22;5074545;28;20392;-59
2022/04/03 03:04:58;;;;;;;10.70;4.00;;;;;;;-1.58;nan;102304.59;5074406;28;20037;-62
2022/04/03 03:07:24;;;;;;;4.95;3.72;;;;;;;-1.82;nan;102258.03;5074337;28;20419;-61
2022/04/03 03:09:49;;;;;;;5.82;3.92;;;;;;;-1.57;nan;102307.22;5074363;28;20072;-59
2022/04/03 03:12:15;;;;;;;5.45;3.80;;;;;;;-1.57;nan;102308.91;5074175;28;20480;-60
2022/04/03 03:14:41;;;;;;;7.10;4.20;;;;;;;-2.03;nan;102226.19;5073100;28;20032;-61
2022/04/03 03:17:06;;;;;;;5.35;3.75;;;;;;;-1.68;nan;102293.00;5074130;28;20060;-60
2022/04/03 03:19:31;;;;;;;6.93;3.88;;;;;;;-1.60;nan;102307.09;5074264;28;20111;-60
2022/04/03 03:21:57;;;;;;;6.50;4.05;;;;;;;-1.66;nan;102295.66;5056009;28;20444;-61
2022/04/03 03:24:22;;;;;;;4.35;3.50;;;;;;;-1.68;nan;102302.44;5072916;28;20039;-60
2022/04/03 03:26:47;;;;;;;5.07;3.80;;;;;;;-2.06;nan;102242.44;5073959;28;20036;-60
2022/04/03 03:29:13;;;;;;;7.22;4.05;;;;;;;-1.71;nan;102303.22;5073777;28;20689;-60
2022/04/03 03:31:38;;;;;;;5.15;4.18;;;;;;;-1.77;nan;102293.53;5072204;28;20106;-60
2022/04/03 03:34:04;;;;;;;4.45;3.67;;;;;;;-2.33;nan;102202.59;5073739;28;20082;-61
2022/04/03 03:36:29;;;;;;;5.78;3.70;;;;;;;-2.17;nan;102222.16;5072480;28;20040;-60
2022/04/03 03:38:55;;;;;;;8.32;4.25;;;;;;;-2.11;nan;102237.91;5073598;28;20067;-61
2022/04/03 03:41:20;;;;;;;4.93;4.13;;;;;;;-2.19;nan;102229.88;5073537;28;20029;-60
2022/04/03 03:43:47;;;;;;;5.45;4.05;;;;;;;-1.83;nan;102301.00;5073750;28;20368;-61
2022/04/03 03:46:13;;;;;;;7.75;4.03;;;;;;;-2.33;nan;102218.94;5073838;28;20090;-61
2022/04/03 03:48:38;;;;;;;8.00;4.22;;;;;;;-1.88;nan;102297.38;5073503;28;20036;-61
2022/04/03 03:51:04;;;;;;;5.57;3.67;;;;;;;-1.98;nan;102284.91;5073350;28;20078;-61
2022/04/03 03:53:30;;;;;;;5.00;3.58;;;;;;;-1.92;nan;102294.59;5073535;28;20040;-61
2022/04/03 03:55:56;;;;;;;6.60;4.28;;;;;;;-1.95;nan;102305.66;5073175;28;20095;-61
2022/04/03 03:58:21;;;;;;;6.00;3.72;;;;;;;-1.96;nan;102296.19;5073260;28;20111;-60
2022/04/03 04:00:47;;;;;;;5.50;3.95;;;;;;;-2.39;nan;102236.75;5081077;28;20126;-60
2022/04/03 04:03:12;;;;;;;7.38;3.83;;;;;;;-1.99;nan;102295.16;5091897;28;20062;-61
2022/04/03 04:05:38;;;;;;;5.95;3.80;;;;;;;-2.02;nan;102308.81;5093031;28;20154;-61
2022/04/03 04:08:04;;;;;;;6.03;3.67;;;;;;;-2.21;nan;102275.31;5092147;28;20036;-62
2022/04/03 04:10:29;;;;;;;6.72;4.50;;;;;;;-2.52;nan;102239.63;5091742;28;20053;-60
2022/04/03 04:12:55;;;;;;;8.23;4.00;;;;;;;-2.08;nan;102312.84;5092935;28;20078;-60
2022/04/03 04:15:20;;;;;;;4.70;3.58;;;;;;;-2.33;nan;102279.97;5093158;28;20452;-61
2022/04/03 04:17:47;;;;;;;8.57;4.28;;;;;;;-2.13;nan;102324.69;5093114;28;20064;-60
2022/04/03 04:20:15;;;;;;;6.40;3.90;;;;;;;-2.65;nan;102233.88;5091852;28;20134;-60
2022/04/03 04:22:41;;;;;;;5.00;4.45;;;;;;;-2.59;nan;102250.50;5074928;28;20038;-61
2022/04/03 04:25:07;;;;;;;4.72;3.70;;;;;;;-2.30;nan;102293.88;5093254;28;20116;-61
2022/04/03 04:27:32;;;;;;;7.45;4.68;;;;;;;-2.14;nan;102330.63;5093195;28;20122;-60
2022/04/03 04:29:58;;;;;;;7.18;4.32;;;;;;;-2.17;nan;102323.66;5092584;28;20385;-60
2022/04/03 04:32:24;;;;;;;5.45;4.07;;;;;;;-2.18;nan;102318.41;5093907;28;20056;-61
2022/04/03 04:34:50;;;;;;;5.82;3.92;;;;;;;-2.20;nan;102317.47;5092086;28;20051;-60
2022/04/03 04:37:16;;;;;;;4.55;3.75;;;;;;;-2.20;nan;102325.22;5092805;28;20036;-62
2022/04/03 04:39:41;;;;;;;7.45;5.03;;;;;;;-2.67;nan;102253.56;5091215;28;20446;-60
2022/04/03 04:42:07;;;;;;;7.13;4.55;;;;;;;-2.23;nan;102338.88;5092514;28;20040;-63
2022/04/03 04:44:32;;;;;;;7.13;4.20;;;;;;;-2.27;nan;102324.06;5092716;28;20127;-61
2022/04/03 04:46:58;;;;;;;8.02;5.35;;;;;;;-2.26;nan;102333.56;5090918;28;20130;-61
2022/04/03 04:49:23;;;;;;;7.82;4.63;;;;;;;-2.29;nan;102328.28;5090969;28;20059;-61
2022/04/03 04:51:50;;;;;;;9.05;6.55;;;;;;;-2.33;nan;102310.91;5093271;28;20024;-63
2022/04/03 04:54:15;;;;;;;9.50;5.40;;;;;;;-2.39;nan;102311.53;5091066;28;20043;-62
2022/04/03 04:56:41;;;;;;;7.70;5.05;;;;;;;-2.50;nan;102283.50;5092277;28;20035;-62
2022/04/03 04:59:06;;;;;;;5.68;4.60;;;;;;;-2.35;nan;102322.88;5091060;28;20036;-63
2022/04/03 05:01:32;;;;;;;9.30;4.60;;;;;;;-2.76;nan;102242.84;5092174;28;20032;-63
2022/04/03 05:03:57;;;;;;;9.07;4.85;;;;;;;-2.34;nan;102322.06;5091701;28;20028;-62
2022/04/03 05:06:26;;;;;;;7.72;5.20;;;;;;;-2.76;nan;102251.47;5091565;28;20036;-61
2022/04/03 05:08:51;;;;;;;8.48;5.85;;;;;;;-2.34;nan;102322.94;5090951;28;20028;-63
2022/04/03 05:11:16;;;;;;;10.32;5.45;;;;;;;-2.43;nan;102304.50;5092084;28;20046;-62
2022/04/03 05:13:42;;;;;;;10.02;5.43;;;;;;;-2.40;nan;102306.31;5092693;28;20109;-63
2022/04/03 05:16:08;;;;;;;9.13;5.78;;;;;;;-2.33;nan;102321.22;5091980;28;20040;-62
2022/04/03 05:18:36;;;;;;;6.68;4.60;;;;;;;-2.38;nan;102302.09;5091039;28;20472;-63
2022/04/03 05:21:03;;;;;;;7.90;5.50;;;;;;;-2.37;nan;102319.34;5090729;28;20036;-63
2022/04/03 05:23:28;;;;;;;7.75;5.70;;;;;;;-2.37;nan;102306.44;5072780;28;20077;-63
2022/04/03 05:25:53;;;;;;;11.73;5.43;;;;;;;-2.28;nan;102319.75;5089836;28;20448;-63
2022/04/03 05:28:21;;;;;;;7.72;5.45;;;;;;;-2.29;nan;102308.53;5091163;28;20032;-64
2022/04/03 05:30:46;;;;;;;7.63;5.00;;;;;;;-2.59;nan;102258.22;5090768;28;20024;-63
2022/04/03 05:33:14;;;;;;;7.38;5.30;;;;;;;-2.25;nan;102313.84;5090985;28;20855;-63
2022/04/03 05:35:39;;;;;;;7.40;5.00;;;;;;;-2.19;nan;102303.78;5091482;28;20036;-63
2022/04/03 05:38:05;;;;;;;7.40;5.03;;;;;;;-2.17;nan;102312.44;5091795;28;20039;-64
2022/04/03 05:40:30;;;;;;;6.78;6.03;;;;;;;-2.17;nan;102315.91;5090894;28;20051;-62
2022/04/03 05:42:56;;;;;;;9.82;5.40;;;;;;;-2.09;nan;102305.91;5106672;28;20492;-64
2022/04/03 05:45:21;;;;;;;7.50;6.03;;;;;;;-2.42;nan;102246.94;5090636;28;20458;-64
2022/04/03 05:47:46;;;;;;;10.98;6.15;;;;;;;-2.31;nan;102258.56;5089681;28;20040;-62
2022/04/03 05:50:14;;;;;;;7.30;5.25;;;;;;;-2.03;nan;102299.31;5089934;28;20055;-62
2022/04/03 05:52:50;;;;;;;7.97;5.63;;;;;;;-1.88;nan;102309.38;5090827;28;20111;-62
2022/04/03 05:55:20;;;;;;;6.25;5.38;;;;;;;-1.98;nan;102287.47;5091096;28;20466;-63
2022/04/03 05:57:48;;;;;;;8.20;5.95;;;;;;;-1.93;nan;102270.50;5091586;28;20036;-62
2022/04/03 06:00:15;;;;;;;6.68;5.68;;;;;;;-1.67;nan;102304.22;5090482;28;20032;-64
2022/04/03 06:02:56;;;;;;;8.38;5.55;;;;;;;-1.97;nan;102237.66;5091756;28;20101;-63
2022/04/03 06:05:24;;;;;;;7.10;5.20;;;;;;;-1.55;nan;102291.81;5091545;28;20032;-64
2022/04/03 06:07:49;;;;;;;10.15;5.68;;;;;;;-1.38;nan;102304.56;5091464;28;20380;-64
2022/04/03 06:10:15;;;;;;;8.20;6.07;;;;;;;-1.62;nan;102248.47;5073288;28;20100;-64
2022/04/03 06:13:01;;;;;;;13.55;5.90;;;;;;;-1.16;nan;102306.25;5091629;28;20032;-64
2022/04/03 06:15:34;;;;;;;12.63;7.22;;;;;;;-1.50;nan;102242.09;5091671;28;20032;-65
2022/04/03 06:18:01;;;;;;;7.15;5.93;;;;;;;-0.89;nan;102320.22;5089938;28;20032;-65
2022/04/03 06:20:28;;;;;;;10.68;6.05;;;;;;;-0.79;nan;102309.38;5090146;28;20067;-65
2022/04/03 06:22:53;;;;;;;11.68;6.65;;;;;;;-0.52;nan;102318.97;5091269;28;20473;-64
2022/04/03 06:25:20;;;;;;;7.25;6.55;;;;;;;-0.24;nan;102340.72;5091523;28;20061;-64
2022/04/03 06:27:46;;;;;;;9.02;5.70;;;;;;;-0.09;nan;102322.28;5091345;28;20393;-63
2022/04/03 06:30:12;;;;;;;10.00;6.00;;;;;;;0.04;nan;102313.19;5090953;28;20024;-62
2022/04/03 06:32:38;;;;;;;8.52;5.88;;;;;;;-0.05;nan;102291.34;5091362;28;20048;-61
2022/04/03 06:35:04;;;;;;;8.85;6.78;;;;;;;0.22;nan;102312.09;5093837;28;20483;-62
2022/04/03 06:37:29;;;;;;;8.25;5.63;;;;;;;0.52;nan;102326.06;5094938;28;20031;-62
2022/04/03 06:39:54;;;;;;;6.40;4.88;;;;;;;0.62;nan;102253.75;5093467;28;20115;-61
2022/04/03 06:42:20;;;;;;;6.82;5.13;;;;;;;1.53;nan;102320.44;5094777;28;20059;-62
2022/04/03 06:44:45;;;;;;;5.93;4.10;;;;;;;1.83;nan;102252.00;5094956;28;20131;-60
2022/04/03 06:47:11;;;;;;;7.68;4.28;;;;;;;2.83;nan;102321.16;5095073;28;20097;-61
2022/04/03 06:49:36;;;;;;;4.93;3.55;;;;;;;3.22;nan;102281.22;5076839;28;20434;-62
2022/04/03 06:52:02;;;;;;;4.50;3.97;;;;;;;3.98;nan;102325.25;5094828;28;20388;-59
2022/04/03 06:54:27;;;;;;;5.88;3.95;;;;;;;4.27;nan;102289.25;5094927;28;20079;-59
2022/04/03 06:56:53;;;;;;;4.18;2.85;;;;;;;4.53;nan;102265.34;5110258;28;20068;-59
2022/04/03 06:59:18;;;;;;;5.95;3.65;;;;;;;5.55;nan;102381.59;5094727;28;20028;-60
2022/04/03 07:01:44;;;;;;;3.60;2.50;;;;;;;6.00;nan;102376.06;5094450;28;20047;-60
2022/04/03 07:04:09;;;;;;;4.63;2.75;;;;;;;6.26;nan;102334.47;5094789;28;20480;-60
2022/04/03 07:06:34;;;;;;;3.63;2.40;;;;;;;6.17;nan;102341.38;5093190;28;20081;-60
2022/04/03 07:09:00;;;;;;;2.90;1.85;;;;;;;6.25;nan;102390.28;5094587;28;20028;-60
2022/04/03 07:11:25;;;;;;;3.13;1.88;;;;;;;6.49;nan;102411.41;5094629;28;20039;-59
2022/04/03 07:13:50;;;;;;;5.45;1.83;;;;;;;6.30;nan;102347.63;5094450;28;20048;-59
2022/04/03 07:16:15;;;;;;;2.05;1.85;;;;;;;5.96;nan;102301.09;5094316;28;20040;-60
2022/04/03 07:18:41;;;;;;;5.32;2.00;;;;;;;5.63;nan;102297.22;5094452;28;20068;-60
2022/04/03 07:21:06;;;;;;;4.18;1.80;;;;;;;5.85;nan;102436.88;5092814;28;20038;-60
2022/04/03 07:23:31;;;;;;;3.22;1.80;;;;;;;5.45;nan;102421.50;5094561;28;20090;-60
2022/04/03 07:25:57;;;;;;;2.80;1.92;;;;;;;5.40;nan;102412.75;5092679;28;20062;-62
2022/04/03 07:28:22;;;;;;;4.13;2.22;;;;;;;5.47;nan;102328.38;5094036;28;20043;-59
2022/04/03 07:30:48;;;;;;;4.47;2.38;;;;;;;6.89;nan;102423.13;5093829;28;20032;-59
2022/04/03 07:33:13;;;;;;;3.58;1.88;;;;;;;8.06;nan;102424.59;5093892;28;20064;-60
2022/04/03 07:35:39;;;;;;;4.60;2.00;;;;;;;9.09;nan;102424.75;5092775;28;20031;-59
2022/04/03 07:38:04;;;;;;;3.10;2.00;;;;;;;9.75;nan;102426.34;5093751;28;20468;-58
2022/04/03 07:40:30;;;;;;;2.33;1.80;;;;;;;10.16;nan;102419.16;5093815;28;20032;-60
2022/04/03 07:42:56;;;;;;;5.85;2.25;;;;;;;10.67;nan;102421.47;5093832;28;20115;-58
2022/04/03 07:45:23;;;;;;;3.63;1.30;;;;;;;10.88;nan;102422.16;5093439;28;20569;-59
2022/04/03 07:47:50;;;;;;;1.90;1.42;;;;;;;11.17;nan;102423.66;5093562;28;20408;-60
2022/04/03 07:50:18;;;;;;;1.77;1.40;;;;;;;11.57;nan;102407.41;5093727;28;20028;-60
2022/04/03 07:52:47;;;;;;;2.45;1.50;;;;;;;11.19;nan;102353.34;5092251;28;20066;-60
2022/04/03 07:55:13;;;;;;;2.85;0.93;;;;;;;11.17;nan;102349.84;5093653;28;20142;-60
2022/04/03 07:57:40;;;;;;;1.17;1.00;;;;;;;11.90;nan;102408.78;5093475;28;20027;-60
2022/04/03 08:00:07;;;;;;;2.90;1.10;;;;;;;12.03;nan;102398.03;5093404;28;20402;-60
2022/04/03 08:02:33;;;;;;;1.88;0.88;;;;;;;;;;5093554;28;20966;-59
2022/04/03 08:04:58;;;;;;;2.80;0.90;;;;;;;;;;5093481;28;20123;-59
2022/04/03 08:07:33;;;;;;;1.10;0.90;;;;;;;;;;5093351;28;20067;-58
2022/04/03 08:09:58;;;;;;;2.53;0.98;;;;;;;;;;5091971;28;20381;-59
2022/04/03 08:12:23;;;;;;;2.90;1.17;;;;;;;;;;5092951;28;20129;-57
2022/04/03 08:14:49;;;;;;;2.77;1.03;;;;;;;;;;5092997;28;20316;-58
2022/04/03 08:17:14;;;;;;;2.63;1.10;;;;;;;;;;5092757;28;20298;-58
2022/04/03 08:19:39;;;;;;;0.63;0.57;;;;;;;;;;5093124;28;20039;-57
2022/04/03 08:22:04;;;;;;;3.83;1.10;;;;;;;;;;5092931;28;20094;-59
2022/04/03 08:24:30;;;;;;;1.95;0.88;;;;;;;;;;5092863;28;20290;-58
2022/04/03 08:26:55;;;;;;;2.93;0.80;;;;;;;;;;5092676;28;20078;-59
2022/04/03 08:29:20;;;;;;;2.40;0.87;;;;;;;;;;5093099;28;20063;-55
2022/04/03 08:31:45;;;;;;;2.37;1.50;;;;;;;;;;5092516;28;20087;-54
2022/04/03 08:34:11;;;;;;;1.93;1.40;;;;;;;10.14;nan;102431.44;5092607;28;20289;-59
2022/04/03 08:36:36;;;;;;;2.28;0.82;;;;;;;9.97;nan;102435.91;5092800;28;20302;-58
2022/04/03 08:39:02;;;;;;;3.80;1.08;;;;;;;9.64;nan;102431.63;5092559;28;20040;-57
2022/04/03 08:41:27;;;;;;;1.20;0.85;;;;;;;8.82;nan;102358.25;5092715;28;20420;-59
2022/04/03 08:43:53;;;;;;;3.45;1.10;;;;;;;8.98;nan;102432.66;5092648;28;20048;-58
2022/04/03 08:46:18;;;;;;;3.28;1.10;;;;;;;8.57;nan;102437.00;5091049;28;20059;-58
2022/04/03 08:48:44;;;;;;;4.30;1.30;;;;;;;8.38;nan;102428.22;5092368;28;20032;-58
2022/04/03 08:51:10;;;;;;;4.00;1.75;;;;;;;8.20;nan;102420.31;5092163;28;20043;-58
2022/04/03 08:53:35;;;;;;;1.10;0.95;;;;;;;7.63;nan;102361.56;5092259;28;20468;-58
2022/04/03 08:56:01;;;;;;;3.95;1.20;;;;;;;7.76;nan;102420.16;5090545;28;20036;-57
2022/04/03 08:58:26;;;;;;;1.90;1.00;;;;;;;7.81;nan;102415.78;5090787;28;20052;-55
2022/04/03 09:00:52;;;;;;;2.72;1.20;;;;;;;7.47;nan;102369.34;5092238;28;20040;-58
2022/04/03 09:03:18;;;;;;;2.50;1.35;;;;;;;7.81;nan;102432.41;5092537;28;20147;-57
2022/04/03 09:05:43;;;;;;;2.38;0.98;;;;;;;7.47;nan;102434.84;5092057;28;20039;-59
2022/04/03 09:08:10;;;;;;;9.98;1.58;;;;;;;7.38;nan;102438.31;5092157;28;20122;-59
2022/04/03 09:10:36;;;;;;;3.47;1.00;;;;;;;7.08;nan;102397.06;5090568;28;20025;-57
2022/04/03 09:13:02;;;;;;;2.65;0.50;;;;;;;7.16;nan;102436.38;5092064;28;20093;-56
2022/04/03 09:15:29;;;;;;;1.73;0.70;;;;;;;7.07;nan;102408.41;5090752;28;20039;-59
2022/04/03 09:17:57;;;;;;;1.48;0.60;;;;;;;6.67;nan;102365.38;5090647;28;20223;-55
2022/04/03 09:20:24;;;;;;;3.40;0.90;;;;;;;6.71;nan;102361.88;5091911;28;20131;-57
2022/04/03 09:22:52;;;;;;;0.68;0.50;;;;;;;7.12;nan;102429.41;5090713;28;20094;-58
2022/04/03 09:25:29;;;;;;;2.90;0.70;;;;;;;6.79;nan;102365.47;5090467;28;20024;-58
2022/04/03 09:27:56;;;;;;;2.47;0.90;;;;;;;7.36;nan;102424.28;5091696;28;20533;-59
2022/04/03 09:30:24;;;;;;;0.80;0.60;;;;;;;7.23;nan;102393.66;5090639;28;20396;-56
2022/04/03 09:32:55;;;;;;;1.48;0.50;;;;;;;7.22;nan;102357.88;5090161;28;20044;-58
2022/04/03 09:35:26;;;;;;;2.22;0.63;;;;;;;7.93;nan;102419.34;5091636;28;20036;-57
2022/04/03 09:38:08;;;;;;;1.58;0.73;;;;;;;8.33;nan;102429.97;5091585;28;20055;-57
2022/04/03 09:40:35;;;;;;;0.77;0.40;;;;;;;8.39;nan;102367.00;5090093;28;20036;-58
2022/04/03 09:43:27;;;;;;;3.17;0.60;;;;;;;8.79;nan;102426.50;5091179;28;20404;-58
2022/04/03 09:45:57;;;;;;;0.88;0.40;;;;;;;8.84;nan;102419.50;5090171;28;20050;-59
2022/04/03 09:48:28;;;;;;;2.50;0.50;;;;;;;8.56;nan;102367.00;5091523;28;20032;-58
2022/04/03 09:50:56;;;;;;;;;;;;;;;9.16;nan;102430.00;5091956;28;20043;-58
2022/04/03 09:53:22;;;;;;;1.80;0.60;;;;;;;9.43;nan;102413.28;5091411;28;20253;-56
2022/04/03 09:55:48;;;;;;;1.45;0.57;;;;;;;9.25;nan;102406.31;5089890;28;20028;-59
2022/04/03 09:58:13;;;;;;;2.17;0.75;;;;;;;9.03;nan;102405.50;5091269;28;20488;-58
2022/04/03 10:00:40;;;;;;;1.35;0.63;;;;;;;9.19;nan;102410.75;5091059;28;20346;-58
2022/04/03 10:03:06;;;;;;;1.63;0.50;;;;;;;9.25;nan;102416.84;5089866;28;20413;-58
2022/04/03 10:05:36;;;;;;;1.23;0.50;;;;;;;9.24;nan;102414.22;5073282;28;20071;-59
2022/04/03 10:08:06;;;;;;;1.02;0.50;;;;;;;9.09;nan;102340.69;5092234;28;20032;-59
2022/04/03 10:10:37;;;;;;;1.05;0.55;;;;;;;9.50;nan;102410.66;5077308;28;20028;-59
2022/04/03 10:13:04;;;;;;;2.58;0.43;;;;;;;9.61;nan;102323.84;5094204;28;20032;-59
2022/04/03 10:15:30;;;;;;;1.45;0.65;;;;;;;9.71;nan;102382.53;5094181;28;20042;-58
2022/04/03 10:17:55;;;;;;;0.35;0.30;;;;;;;9.73;nan;102375.50;5095651;28;20396;-59
2022/04/03 10:20:28;;;;;;;2.08;0.50;;;;;;;9.61;nan;102410.63;5095489;28;20036;-59
2022/04/03 10:23:10;;;;;;;0.30;0.30;;;;;;;9.03;nan;102391.50;5094253;28;20036;-59
2022/04/03 10:25:44;;;;;;;1.60;0.50;;;;;;;8.90;nan;102402.91;5094321;28;20027;-59
2022/04/03 10:28:10;;;;;;;0.63;0.40;;;;;;;8.67;nan;102337.25;5095376;28;20496;-59
2022/04/03 10:30:43;;;;;;;1.10;0.43;;;;;;;9.32;nan;102404.56;5094345;28;20112;-60
2022/04/03 10:33:19;;;;;;;2.03;0.90;;;;;;;9.36;nan;102377.41;5095286;28;20479;-57
2022/04/03 10:35:49;;;;;;;1.38;0.50;;;;;;;9.19;nan;102395.84;5077178;28;20373;-60
2022/04/03 10:38:14;;;;;;;2.38;0.40;;;;;;;9.00;nan;102405.50;5095039;28;20036;-58
2022/04/03 10:40:40;;;;;;;1.48;0.60;;;;;;;8.63;nan;102400.28;5094115;28;20035;-60
2022/04/03 10:43:06;;;;;;;2.85;0.60;;;;;;;8.27;nan;102395.81;5093723;28;20032;-60
2022/04/03 10:45:51;;;;;;;1.08;0.50;;;;;;;8.26;nan;102331.13;5095161;28;20044;-58
2022/04/03 10:48:26;;;;;;;1.80;0.85;;;;;;;9.09;nan;102402.00;5094868;28;20066;-59
2022/04/03 10:51:09;;;;;;;1.30;0.57;;;;;;;9.39;nan;102396.69;5094888;28;20457;-60
2022/04/03 10:53:58;;;;;;;3.13;0.85;;;;;;;9.12;nan;102393.22;5095185;28;20082;-58
2022/04/03 10:56:26;;;;;;;2.20;0.52;;;;;;;8.95;nan;102395.88;5093634;28;20123;-59
2022/04/03 10:58:53;;;;;;;1.80;0.55;;;;;;;8.89;nan;102356.50;5094858;28;20052;-59
2022/04/03 11:01:32;;;;;;;1.88;0.70;;;;;;;9.56;nan;102400.13;5093405;28;20028;-60
2022/04/03 11:03:58;;;;;;;0.50;0.40;;;;;;;9.35;nan;102394.94;5093426;28;20056;-59
2022/04/03 11:06:25;;;;;;;2.70;0.80;;;;;;;10.83;nan;102363.38;5094609;28;20136;-60
2022/04/03 11:08:59;;;;;;;2.97;0.50;;;;;;;13.10;nan;102369.06;5094382;28;20473;-60
2022/04/03 11:11:58;;;;;;;0.98;0.55;;;;;;;14.93;nan;102387.91;5094599;28;20032;-60
2022/04/03 11:15:01;;;;;;;0.98;0.43;;;;;;;15.62;nan;102371.88;5094458;28;20028;-60
2022/04/03 11:17:54;;;;;;;1.65;0.47;;;;;;;13.71;nan;102381.06;5094121;28;20035;-60
2022/04/03 11:20:36;;;;;;;1.52;0.57;;;;;;;13.35;nan;102382.66;5092235;28;20345;-59
2022/04/03 11:23:03;;;;;;;3.50;0.70;;;;;;;13.57;nan;102388.41;5094067;28;20032;-60
2022/04/03 11:25:29;;;;;;;1.40;0.68;;;;;;;13.90;nan;102317.09;5094028;28;20122;-60
2022/04/03 11:27:54;;;;;;;0.88;0.38;;;;;;;14.30;nan;102375.28;5092793;28;20442;-60
2022/04/03 11:30:20;;;;;;;1.38;0.47;;;;;;;15.29;nan;102381.66;5075815;28;20039;-60
2022/04/03 11:32:47;;;;;;;2.80;0.77;;;;;;;14.45;nan;102371.44;5094247;28;20110;-60
2022/04/03 11:35:13;;;;;;;1.55;0.50;;;;;;;15.23;nan;102379.16;5092684;28;20040;-59
2022/04/03 11:37:43;;;;;;;0.40;0.38;;;;;;;15.74;nan;102371.53;5093927;28;20105;-59
2022/04/03 11:40:09;;;;;;;2.38;0.77;;;;;;;15.96;nan;102310.69;5093851;28;20473;-60
2022/04/03 11:42:35;;;;;;;4.53;0.50;;;;;;;16.86;nan;102338.69;5093795;28;20043;-59
2022/04/03 11:45:06;;;;;;;1.17;0.50;;;;;;;16.85;nan;102372.41;5092203;28;20427;-60
2022/04/03 11:47:32;;;;;;;0.47;0.25;;;;;;;16.80;nan;102361.06;5092610;28;20055;-59
2022/04/03 11:50:08;;;;;;;1.25;0.45;;;;;;;16.91;nan;102359.81;5092289;28;20060;-59